sensor_id;sensor_type;location;lat;lon;timestamp;pressure;altitude;pressure_sealevel;temperature;humidity
78800;BME280;68148;55.328;86.106;2023-07-31T00:00:01;98676.22;;;18.09;100.00
78800;BME280;68148;55.328;86.106;2023-07-31T00:02:28;98673.00;;;18.02;100.00
78800;BME280;68148;55.328;86.106;2023-07-31T00:04:53;98677.00;;;18.05;100.00
78800;BME280;68148;55.328;86.106;2023-07-31T00:07:31;98677.31;;;18.08;100.00
78800;BME280;68148;55.328;86.106;2023-07-31T00:10:01;98681.00;;;18.07;100.00
78800;BME280;68148;55.328;86.106;2023-07-31T00:12:27;98690.38;;;18.10;100.00
78800;BME280;68148;55.328;86.106;2023-07-31T00:14:53;98690.38;;;18.10;100.00
78800;BME280;68148;55.328;86.106;2023-07-31T00:17:18;98689.06;;;18.12;100.00
78800;BME280;68148;55.328;86.106;2023-07-31T00:19:44;98691.75;;;18.17;100.00
78800;BME280;68148;55.328;86.106;2023-07-31T00:22:10;98689.88;;;18.18;100.00
78800;BME280;68148;55.328;86.106;2023-07-31T00:24:36;98685.84;;;18.15;100.00
78800;BME280;68148;55.328;86.106;2023-07-31T00:27:02;98693.59;;;18.12;100.00
78800;BME280;68148;55.328;86.106;2023-07-31T00:29:28;98695.44;;;18.06;100.00
78800;BME280;68148;55.328;86.106;2023-07-31T00:31:54;98693.59;;;18.12;100.00
78800;BME280;68148;55.328;86.106;2023-07-31T00:34:20;98689.84;;;18.08;100.00
78800;BME280;68148;55.328;86.106;2023-07-31T00:36:45;98690.09;;;18.06;100.00
78800;BME280;68148;55.328;86.106;2023-07-31T00:39:11;98689.88;;;18.18;100.00
78800;BME280;68148;55.328;86.106;2023-07-31T00:41:37;98688.06;;;18.34;100.00
78800;BME280;68148;55.328;86.106;2023-07-31T00:44:03;98694.03;;;18.66;100.00
78800;BME280;68148;55.328;86.106;2023-07-31T00:46:28;98685.25;;;18.81;100.00
78800;BME280;68148;55.328;86.106;2023-07-31T00:48:54;98683.16;;;18.93;100.00
78800;BME280;68148;55.328;86.106;2023-07-31T00:51:20;98696.25;;;18.90;100.00
78800;BME280;68148;55.328;86.106;2023-07-31T00:53:47;98698.91;;;19.00;100.00
78800;BME280;68148;55.328;86.106;2023-07-31T00:56:13;98703.19;;;18.96;99.45
78800;BME280;68148;55.328;86.106;2023-07-31T00:58:41;98710.13;;;18.92;98.86
78800;BME280;68148;55.328;86.106;2023-07-31T01:01:19;98709.88;;;18.93;99.86
78800;BME280;68148;55.328;86.106;2023-07-31T01:03:45;98709.09;;;18.93;100.00
78800;BME280;68148;55.328;86.106;2023-07-31T01:06:24;98708.53;;;18.96;100.00
78800;BME280;68148;55.328;86.106;2023-07-31T01:09:01;98718.41;;;18.95;100.00
78800;BME280;68148;55.328;86.106;2023-07-31T01:11:30;98715.22;;;18.93;100.00
78800;BME280;68148;55.328;86.106;2023-07-31T01:13:57;98718.97;;;18.97;98.72
78800;BME280;68148;55.328;86.106;2023-07-31T01:16:24;98721.13;;;19.11;99.57
78800;BME280;68148;55.328;86.106;2023-07-31T01:18:50;98720.03;;;18.96;98.03
78800;BME280;68148;55.328;86.106;2023-07-31T01:21:30;98733.16;;;19.08;98.83
78800;BME280;68148;55.328;86.106;2023-07-31T01:26:44;98738.75;;;19.22;99.66
78800;BME280;68148;55.328;86.106;2023-07-31T01:29:23;98734.75;;;19.30;96.58
78800;BME280;68148;55.328;86.106;2023-07-31T01:31:53;98735.56;;;19.35;97.35
78800;BME280;68148;55.328;86.106;2023-07-31T01:34:22;98739.03;;;19.46;98.31
78800;BME280;68148;55.328;86.106;2023-07-31T01:36:48;98741.97;;;19.55;98.72
78800;BME280;68148;55.328;86.106;2023-07-31T01:39:13;98736.38;;;19.61;96.36
78800;BME280;68148;55.328;86.106;2023-07-31T01:41:39;98730.47;;;19.59;95.53
78800;BME280;68148;55.328;86.106;2023-07-31T01:44:05;98738.50;;;19.80;96.40
78800;BME280;68148;55.328;86.106;2023-07-31T01:46:31;98738.16;;;20.01;91.55
78800;BME280;68148;55.328;86.106;2023-07-31T01:48:58;98740.53;;;20.08;92.18
78800;BME280;68148;55.328;86.106;2023-07-31T01:51:24;98733.03;;;20.15;92.28
78800;BME280;68148;55.328;86.106;2023-07-31T01:53:50;98737.91;;;19.98;91.08
78800;BME280;68148;55.328;86.106;2023-07-31T01:56:16;98727.38;;;20.27;91.28
78800;BME280;68148;55.328;86.106;2023-07-31T01:58:41;98732.97;;;20.25;89.25
78800;BME280;68148;55.328;86.106;2023-07-31T02:01:07;98733.09;;;19.90;89.00
78800;BME280;68148;55.328;86.106;2023-07-31T02:03:34;98738.44;;;19.95;90.80
78800;BME280;68148;55.328;86.106;2023-07-31T02:06:00;98744.84;;;20.04;89.37
78800;BME280;68148;55.328;86.106;2023-07-31T02:08:27;98738.47;;;19.90;89.39
78800;BME280;68148;55.328;86.106;2023-07-31T02:10:53;98743.28;;;19.98;90.24
78800;BME280;68148;55.328;86.106;2023-07-31T02:13:20;98747.56;;;19.89;89.84
78800;BME280;68148;55.328;86.106;2023-07-31T02:15:45;98754.03;;;19.72;90.29
78800;BME280;68148;55.328;86.106;2023-07-31T02:18:11;98746.00;;;19.67;89.64
78800;BME280;68148;55.328;86.106;2023-07-31T02:20:38;98755.09;;;19.61;90.94
78800;BME280;68148;55.328;86.106;2023-07-31T02:23:04;98755.09;;;19.61;90.67
78800;BME280;68148;55.328;86.106;2023-07-31T02:25:30;98759.91;;;19.59;89.58
78800;BME280;68148;55.328;86.106;2023-07-31T02:27:56;98762.59;;;19.54;90.41
78800;BME280;68148;55.328;86.106;2023-07-31T02:30:22;98760.69;;;19.60;91.34
78800;BME280;68148;55.328;86.106;2023-07-31T02:32:48;98764.22;;;19.75;90.35
78800;BME280;68148;55.328;86.106;2023-07-31T02:35:14;98753.75;;;19.69;89.75
78800;BME280;68148;55.328;86.106;2023-07-31T02:37:40;98761.00;;;19.79;90.78
78800;BME280;68148;55.328;86.106;2023-07-31T02:40:06;98758.88;;;19.70;90.58
78800;BME280;68148;55.328;86.106;2023-07-31T02:42:32;98772.22;;;19.55;89.61
78800;BME280;68148;55.328;86.106;2023-07-31T02:44:58;98768.72;;;19.34;89.75
78800;BME280;68148;55.328;86.106;2023-07-31T02:47:24;98770.88;;;19.52;90.70
78800;BME280;68148;55.328;86.106;2023-07-31T02:49:49;98770.38;;;19.66;91.69
78800;BME280;68148;55.328;86.106;2023-07-31T02:52:15;98776.53;;;19.66;89.35
78800;BME280;68148;55.328;86.106;2023-07-31T02:54:41;98780.78;;;19.72;90.34
78800;BME280;68148;55.328;86.106;2023-07-31T02:57:07;98774.91;;;19.65;89.05
78800;BME280;68148;55.328;86.106;2023-07-31T02:59:33;98781.59;;;19.68;90.44
78800;BME280;68148;55.328;86.106;2023-07-31T03:01:59;98776.50;;;19.56;90.77
78800;BME280;68148;55.328;86.106;2023-07-31T03:04:24;98785.34;;;19.72;90.67
78800;BME280;68148;55.328;86.106;2023-07-31T03:06:50;98781.84;;;19.82;90.69
78800;BME280;68148;55.328;86.106;2023-07-31T03:09:16;98781.09;;;19.66;89.69
78800;BME280;68148;55.328;86.106;2023-07-31T03:11:42;98790.72;;;19.72;89.36
78800;BME280;68148;55.328;86.106;2023-07-31T03:14:09;98774.13;;;19.75;89.69
78800;BME280;68148;55.328;86.106;2023-07-31T03:16:35;98781.31;;;19.90;88.99
78800;BME280;68148;55.328;86.106;2023-07-31T03:19:01;98786.13;;;19.98;89.67
78800;BME280;68148;55.328;86.106;2023-07-31T03:21:27;98790.34;;;20.19;88.94
78800;BME280;68148;55.328;86.106;2023-07-31T03:23:53;98787.88;;;20.48;88.12
78800;BME280;68148;55.328;86.106;2023-07-31T03:26:19;98778.75;;;20.44;88.46
78800;BME280;68148;55.328;86.106;2023-07-31T03:28:45;98791.34;;;20.49;87.14
78800;BME280;68148;55.328;86.106;2023-07-31T03:31:10;98795.41;;;20.36;86.08
78800;BME280;68148;55.328;86.106;2023-07-31T03:33:44;98792.19;;;20.39;87.12
78800;BME280;68148;55.328;86.106;2023-07-31T03:36:09;98792.94;;;20.45;87.09
78800;BME280;68148;55.328;86.106;2023-07-31T03:38:35;98796.41;;;20.61;87.93
78800;BME280;68148;55.328;86.106;2023-07-31T03:41:01;98803.00;;;20.84;87.04
78800;BME280;68148;55.328;86.106;2023-07-31T03:43:27;98794.34;;;20.97;87.11
78800;BME280;68148;55.328;86.106;2023-07-31T03:45:53;98791.31;;;21.09;84.40
78800;BME280;68148;55.328;86.106;2023-07-31T03:48:19;98799.03;;;21.20;85.93
78800;BME280;68148;55.328;86.106;2023-07-31T03:50:45;98805.94;;;21.32;84.45
78800;BME280;68148;55.328;86.106;2023-07-31T03:53:11;98800.47;;;21.47;82.19
78800;BME280;68148;55.328;86.106;2023-07-31T03:55:36;98800.69;;;21.56;84.29
78800;BME280;68148;55.328;86.106;2023-07-31T03:58:02;98805.63;;;21.72;81.48
78800;BME280;68148;55.328;86.106;2023-07-31T04:00:28;98802.19;;;21.67;80.70
78800;BME280;68148;55.328;86.106;2023-07-31T04:02:54;98807.50;;;22.01;82.16
78800;BME280;68148;55.328;86.106;2023-07-31T04:05:19;98810.97;;;21.78;78.00
78800;BME280;68148;55.328;86.106;2023-07-31T04:07:45;98808.66;;;21.95;79.93
78800;BME280;68148;55.328;86.106;2023-07-31T04:10:11;98807.88;;;21.60;79.44
78800;BME280;68148;55.328;86.106;2023-07-31T04:12:37;98814.34;;;21.59;79.67
78800;BME280;68148;55.328;86.106;2023-07-31T04:15:02;98820.03;;;21.53;80.35
78800;BME280;68148;55.328;86.106;2023-07-31T04:17:28;98818.72;;;21.45;80.16
78800;BME280;68148;55.328;86.106;2023-07-31T04:19:54;98815.78;;;21.46;79.36
78800;BME280;68148;55.328;86.106;2023-07-31T04:22:20;98821.72;;;21.43;79.82
78800;BME280;68148;55.328;86.106;2023-07-31T04:24:46;98819.31;;;21.37;80.77
78800;BME280;68148;55.328;86.106;2023-07-31T04:27:12;98823.50;;;21.53;80.24
78800;BME280;68148;55.328;86.106;2023-07-31T04:29:38;98820.97;;;21.67;79.73
78800;BME280;68148;55.328;86.106;2023-07-31T04:32:04;98815.28;;;21.73;78.66
78800;BME280;68148;55.328;86.106;2023-07-31T04:34:30;98820.31;;;21.51;79.96
78800;BME280;68148;55.328;86.106;2023-07-31T04:36:55;98821.84;;;21.91;78.71
78800;BME280;68148;55.328;86.106;2023-07-31T04:39:21;98821.09;;;21.86;78.27
78800;BME280;68148;55.328;86.106;2023-07-31T04:41:47;98819.69;;;21.93;76.78
78800;BME280;68148;55.328;86.106;2023-07-31T04:44:12;98826.88;;;21.69;79.03
78800;BME280;68148;55.328;86.106;2023-07-31T04:46:39;98824.91;;;21.80;78.05
78800;BME280;68148;55.328;86.106;2023-07-31T04:49:05;98823.91;;;21.70;78.65
78800;BME280;68148;55.328;86.106;2023-07-31T04:51:30;98825.34;;;21.58;78.31
78800;BME280;68148;55.328;86.106;2023-07-31T04:53:56;98825.59;;;21.61;78.72
78800;BME280;68148;55.328;86.106;2023-07-31T04:56:22;98829.25;;;21.75;78.21
78800;BME280;68148;55.328;86.106;2023-07-31T04:58:48;98824.28;;;21.88;78.02
78800;BME280;68148;55.328;86.106;2023-07-31T05:01:13;98830.28;;;22.09;78.86
78800;BME280;68148;55.328;86.106;2023-07-31T05:03:39;98830.44;;;22.22;78.48
78800;BME280;68148;55.328;86.106;2023-07-31T05:06:06;98827.28;;;22.39;76.54
78800;BME280;68148;55.328;86.106;2023-07-31T05:08:32;98831.00;;;22.43;76.07
78800;BME280;68148;55.328;86.106;2023-07-31T05:10:58;98830.53;;;22.12;74.36
78800;BME280;68148;55.328;86.106;2023-07-31T05:13:23;98831.69;;;22.01;77.15
78800;BME280;68148;55.328;86.106;2023-07-31T05:15:50;98840.97;;;22.19;77.60
78800;BME280;68148;55.328;86.106;2023-07-31T05:18:15;98841.03;;;22.09;76.34
78800;BME280;68148;55.328;86.106;2023-07-31T05:20:45;98847.66;;;21.87;76.68
78800;BME280;68148;55.328;86.106;2023-07-31T05:23:11;98856.00;;;21.86;77.53
78800;BME280;68148;55.328;86.106;2023-07-31T05:25:37;98847.16;;;21.51;77.37
78800;BME280;68148;55.328;86.106;2023-07-31T05:28:02;98850.28;;;21.63;78.47
78800;BME280;68148;55.328;86.106;2023-07-31T05:30:30;98850.09;;;21.84;77.61
78800;BME280;68148;55.328;86.106;2023-07-31T05:33:00;98849.63;;;22.11;77.64
78800;BME280;68148;55.328;86.106;2023-07-31T05:35:26;98844.56;;;22.33;77.11
78800;BME280;68148;55.328;86.106;2023-07-31T05:37:52;98847.81;;;22.30;77.19
78800;BME280;68148;55.328;86.106;2023-07-31T05:40:18;98847.59;;;22.27;77.49
78800;BME280;68148;55.328;86.106;2023-07-31T05:42:43;98851.03;;;22.32;77.07
78800;BME280;68148;55.328;86.106;2023-07-31T05:45:09;98854.75;;;22.36;76.63
78800;BME280;68148;55.328;86.106;2023-07-31T05:47:35;98852.81;;;22.42;77.15
78800;BME280;68148;55.328;86.106;2023-07-31T05:50:01;98846.81;;;22.50;76.55
78800;BME280;68148;55.328;86.106;2023-07-31T05:52:27;98851.16;;;22.46;76.36
78800;BME280;68148;55.328;86.106;2023-07-31T05:54:53;98852.44;;;22.54;77.32
78800;BME280;68148;55.328;86.106;2023-07-31T05:57:19;98843.28;;;22.73;75.76
78800;BME280;68148;55.328;86.106;2023-07-31T05:59:44;98862.72;;;22.94;75.68
78800;BME280;68148;55.328;86.106;2023-07-31T06:02:10;98864.81;;;22.97;75.23
78800;BME280;68148;55.328;86.106;2023-07-31T06:04:36;98860.53;;;22.72;75.07
78800;BME280;68148;55.328;86.106;2023-07-31T06:07:02;98858.38;;;22.74;75.13
78800;BME280;68148;55.328;86.106;2023-07-31T06:09:28;98858.47;;;22.64;76.20
78800;BME280;68148;55.328;86.106;2023-07-31T06:11:53;98864.28;;;22.53;75.56
78800;BME280;68148;55.328;86.106;2023-07-31T06:14:20;98868.72;;;22.38;76.27
78800;BME280;68148;55.328;86.106;2023-07-31T06:16:46;98871.16;;;22.35;77.01
78800;BME280;68148;55.328;86.106;2023-07-31T06:19:12;98871.00;;;22.50;77.00
78800;BME280;68148;55.328;86.106;2023-07-31T06:21:37;98875.06;;;22.71;76.57
78800;BME280;68148;55.328;86.106;2023-07-31T06:24:05;98867.81;;;22.96;74.60
78800;BME280;68148;55.328;86.106;2023-07-31T06:26:31;98873.69;;;22.98;75.09
78800;BME280;68148;55.328;86.106;2023-07-31T06:28:57;98881.44;;;23.23;74.80
78800;BME280;68148;55.328;86.106;2023-07-31T06:31:22;98879.41;;;23.34;72.58
78800;BME280;68148;55.328;86.106;2023-07-31T06:33:49;98876.34;;;23.22;73.86
78800;BME280;68148;55.328;86.106;2023-07-31T06:36:15;98881.81;;;23.17;72.38
78800;BME280;68148;55.328;86.106;2023-07-31T06:38:41;98884.31;;;23.08;73.52
78800;BME280;68148;55.328;86.106;2023-07-31T06:41:07;98885.56;;;23.16;73.67
78800;BME280;68148;55.328;86.106;2023-07-31T06:43:33;98878.44;;;23.06;73.96
78800;BME280;68148;55.328;86.106;2023-07-31T06:46:05;98880.47;;;22.95;74.36
78800;BME280;68148;55.328;86.106;2023-07-31T06:48:34;98887.88;;;23.04;74.34
78800;BME280;68148;55.328;86.106;2023-07-31T06:51:02;98882.06;;;22.96;73.94
78800;BME280;68148;55.328;86.106;2023-07-31T06:53:28;98879.53;;;22.81;74.78
78800;BME280;68148;55.328;86.106;2023-07-31T06:55:54;98881.94;;;22.83;75.39
78800;BME280;68148;55.328;86.106;2023-07-31T06:58:20;98887.59;;;22.81;75.19
78800;BME280;68148;55.328;86.106;2023-07-31T07:00:46;98883.25;;;22.85;74.95
78800;BME280;68148;55.328;86.106;2023-07-31T07:03:12;98884.66;;;22.78;74.75
78800;BME280;68148;55.328;86.106;2023-07-31T07:05:38;98878.09;;;22.65;75.09
78800;BME280;68148;55.328;86.106;2023-07-31T07:08:03;98875.84;;;22.48;75.62
78800;BME280;68148;55.328;86.106;2023-07-31T07:10:29;98883.28;;;22.61;75.38
78800;BME280;68148;55.328;86.106;2023-07-31T07:12:56;98886.97;;;22.65;75.95
78800;BME280;68148;55.328;86.106;2023-07-31T07:15:22;98887.31;;;22.83;75.34
78800;BME280;68148;55.328;86.106;2023-07-31T07:17:48;98889.84;;;22.98;75.26
78800;BME280;68148;55.328;86.106;2023-07-31T07:20:15;98898.72;;;22.98;73.34
78800;BME280;68148;55.328;86.106;2023-07-31T07:22:40;98897.84;;;23.03;73.28
78800;BME280;68148;55.328;86.106;2023-07-31T07:25:06;98898.16;;;23.20;74.25
78800;BME280;68148;55.328;86.106;2023-07-31T07:27:32;98892.38;;;23.51;72.97
78800;BME280;68148;55.328;86.106;2023-07-31T07:29:58;98903.84;;;23.57;73.76
78800;BME280;68148;55.328;86.106;2023-07-31T07:32:24;98892.16;;;23.47;71.95
78800;BME280;68148;55.328;86.106;2023-07-31T07:34:50;98896.53;;;23.81;71.76
78800;BME280;68148;55.328;86.106;2023-07-31T07:37:17;98893.94;;;24.22;71.61
78800;BME280;68148;55.328;86.106;2023-07-31T07:39:43;98901.31;;;24.63;71.42
78800;BME280;68148;55.328;86.106;2023-07-31T07:42:09;98888.91;;;24.90;68.37
78800;BME280;68148;55.328;86.106;2023-07-31T07:44:34;98890.72;;;25.08;69.16
78800;BME280;68148;55.328;86.106;2023-07-31T07:47:00;98887.09;;;25.13;66.31
78800;BME280;68148;55.328;86.106;2023-07-31T07:49:26;98888.72;;;24.72;65.40
78800;BME280;68148;55.328;86.106;2023-07-31T07:51:52;98889.41;;;24.64;67.23
78800;BME280;68148;55.328;86.106;2023-07-31T07:54:17;98892.69;;;24.61;68.03
78800;BME280;68148;55.328;86.106;2023-07-31T07:56:43;98886.50;;;24.74;67.82
78800;BME280;68148;55.328;86.106;2023-07-31T07:59:09;98895.31;;;24.80;67.24
78800;BME280;68148;55.328;86.106;2023-07-31T08:01:35;98897.63;;;24.59;67.97
78800;BME280;68148;55.328;86.106;2023-07-31T08:04:00;98892.91;;;24.65;68.64
78800;BME280;68148;55.328;86.106;2023-07-31T08:06:26;98897.31;;;24.14;67.34
78800;BME280;68148;55.328;86.106;2023-07-31T08:08:52;98891.34;;;23.66;68.75
78800;BME280;68148;55.328;86.106;2023-07-31T08:11:18;98899.06;;;23.35;69.25
78800;BME280;68148;55.328;86.106;2023-07-31T08:13:43;98892.06;;;23.34;69.76
78800;BME280;68148;55.328;86.106;2023-07-31T08:16:09;98886.03;;;23.61;68.75
78800;BME280;68148;55.328;86.106;2023-07-31T08:18:35;98896.81;;;24.12;68.00
78800;BME280;68148;55.328;86.106;2023-07-31T08:21:03;98893.09;;;24.08;67.30
78800;BME280;68148;55.328;86.106;2023-07-31T08:23:29;98893.72;;;24.19;67.08
78800;BME280;68148;55.328;86.106;2023-07-31T08:25:55;98894.13;;;24.59;66.80
78800;BME280;68148;55.328;86.106;2023-07-31T08:28:21;98898.09;;;24.61;65.62
78800;BME280;68148;55.328;86.106;2023-07-31T08:30:47;98893.59;;;24.70;66.41
78800;BME280;68148;55.328;86.106;2023-07-31T08:33:13;98893.44;;;24.67;65.79
78800;BME280;68148;55.328;86.106;2023-07-31T08:35:39;98896.41;;;24.65;65.75
78800;BME280;68148;55.328;86.106;2023-07-31T08:38:05;98895.41;;;24.75;65.35
78800;BME280;68148;55.328;86.106;2023-07-31T08:40:31;98883.19;;;24.91;64.55
78800;BME280;68148;55.328;86.106;2023-07-31T08:42:57;98881.81;;;24.53;65.42
78800;BME280;68148;55.328;86.106;2023-07-31T08:45:23;98891.81;;;24.66;63.52
78800;BME280;68148;55.328;86.106;2023-07-31T08:47:51;98885.03;;;24.55;64.08
78800;BME280;68148;55.328;86.106;2023-07-31T08:50:19;98883.22;;;24.64;64.36
78800;BME280;68148;55.328;86.106;2023-07-31T08:52:46;98887.69;;;24.96;66.24
78800;BME280;68148;55.328;86.106;2023-07-31T08:55:14;98882.28;;;25.23;64.52
78800;BME280;68148;55.328;86.106;2023-07-31T08:57:41;98885.50;;;25.48;62.29
78800;BME280;68148;55.328;86.106;2023-07-31T09:00:09;98888.28;;;25.20;61.37
78800;BME280;68148;55.328;86.106;2023-07-31T09:02:46;98883.81;;;25.16;61.84
78800;BME280;68148;55.328;86.106;2023-07-31T09:05:14;98888.22;;;24.98;60.56
78800;BME280;68148;55.328;86.106;2023-07-31T09:07:40;98879.88;;;25.22;61.38
78800;BME280;68148;55.328;86.106;2023-07-31T09:10:14;98883.50;;;25.17;60.90
78800;BME280;68148;55.328;86.106;2023-07-31T09:12:40;98882.22;;;25.15;60.95
78800;BME280;68148;55.328;86.106;2023-07-31T09:15:06;98890.72;;;25.08;61.68
78800;BME280;68148;55.328;86.106;2023-07-31T09:17:34;98892.53;;;24.71;63.39
78800;BME280;68148;55.328;86.106;2023-07-31T09:20:17;98888.88;;;25.04;63.63
78800;BME280;68148;55.328;86.106;2023-07-31T09:22:43;98880.84;;;25.40;63.09
78800;BME280;68148;55.328;86.106;2023-07-31T09:25:21;98882.13;;;25.65;60.85
78800;BME280;68148;55.328;86.106;2023-07-31T09:27:56;98887.28;;;25.89;60.26
78800;BME280;68148;55.328;86.106;2023-07-31T09:30:22;98880.09;;;25.48;58.93
78800;BME280;68148;55.328;86.106;2023-07-31T09:32:50;98885.63;;;25.43;60.96
78800;BME280;68148;55.328;86.106;2023-07-31T09:35:31;98881.78;;;25.58;60.47
78800;BME280;68148;55.328;86.106;2023-07-31T09:38:10;98890.38;;;25.60;60.01
78800;BME280;68148;55.328;86.106;2023-07-31T09:40:46;98883.19;;;25.55;61.30
78800;BME280;68148;55.328;86.106;2023-07-31T09:43:20;98872.13;;;25.79;60.36
78800;BME280;68148;55.328;86.106;2023-07-31T09:45:46;98872.81;;;25.48;60.29
78800;BME280;68148;55.328;86.106;2023-07-31T09:48:17;98876.94;;;25.68;59.54
78800;BME280;68148;55.328;86.106;2023-07-31T09:50:48;98873.38;;;25.59;59.12
78800;BME280;68148;55.328;86.106;2023-07-31T09:53:15;98870.19;;;25.07;58.54
78800;BME280;68148;55.328;86.106;2023-07-31T09:55:42;98874.19;;;24.96;59.51
78800;BME280;68148;55.328;86.106;2023-07-31T09:58:12;98873.28;;;25.01;60.05
78800;BME280;68148;55.328;86.106;2023-07-31T10:00:39;98874.97;;;25.24;59.98
78800;BME280;68148;55.328;86.106;2023-07-31T10:03:08;98872.38;;;25.05;60.45
78800;BME280;68148;55.328;86.106;2023-07-31T10:05:42;98872.38;;;25.05;59.75
78800;BME280;68148;55.328;86.106;2023-07-31T10:08:13;98872.00;;;25.48;60.09
78800;BME280;68148;55.328;86.106;2023-07-31T10:10:44;98872.75;;;25.62;59.88
78800;BME280;68148;55.328;86.106;2023-07-31T10:13:11;98865.13;;;25.78;60.26
78800;BME280;68148;55.328;86.106;2023-07-31T10:15:37;98867.56;;;25.88;57.61
78800;BME280;68148;55.328;86.106;2023-07-31T10:18:07;98869.59;;;25.83;58.50
78800;BME280;68148;55.328;86.106;2023-07-31T10:20:34;98860.72;;;25.68;59.30
78800;BME280;68148;55.328;86.106;2023-07-31T10:23:01;98861.44;;;25.60;61.08
78800;BME280;68148;55.328;86.106;2023-07-31T10:25:27;98864.91;;;25.75;59.82
78800;BME280;68148;55.328;86.106;2023-07-31T10:27:54;98863.28;;;25.87;60.24
78800;BME280;68148;55.328;86.106;2023-07-31T10:30:26;98866.38;;;26.03;59.44
78800;BME280;68148;55.328;86.106;2023-07-31T10:32:53;98869.50;;;26.19;59.56
78800;BME280;68148;55.328;86.106;2023-07-31T10:35:27;98865.53;;;26.25;57.58
78800;BME280;68148;55.328;86.106;2023-07-31T10:37:53;98860.59;;;26.18;57.78
78800;BME280;68148;55.328;86.106;2023-07-31T10:40:24;98863.47;;;26.22;57.79
78800;BME280;68148;55.328;86.106;2023-07-31T10:42:54;98861.97;;;26.16;57.46
78800;BME280;68148;55.328;86.106;2023-07-31T10:45:41;98860.53;;;26.10;58.45
78800;BME280;68148;55.328;86.106;2023-07-31T10:48:15;98865.06;;;26.23;58.33
78800;BME280;68148;55.328;86.106;2023-07-31T10:50:49;98867.19;;;26.35;57.59
78800;BME280;68148;55.328;86.106;2023-07-31T10:53:26;98875.78;;;26.37;57.00
78800;BME280;68148;55.328;86.106;2023-07-31T10:55:52;98869.81;;;26.49;57.82
78800;BME280;68148;55.328;86.106;2023-07-31T10:58:19;98874.78;;;26.55;57.55
78800;BME280;68148;55.328;86.106;2023-07-31T11:00:45;98875.34;;;25.67;57.24
78800;BME280;68148;55.328;86.106;2023-07-31T11:03:14;98872.66;;;25.90;58.15
78800;BME280;68148;55.328;86.106;2023-07-31T11:05:47;98871.66;;;26.08;57.77
78800;BME280;68148;55.328;86.106;2023-07-31T11:08:15;98876.47;;;26.20;57.77
78800;BME280;68148;55.328;86.106;2023-07-31T11:10:41;98871.91;;;26.29;56.87
78800;BME280;68148;55.328;86.106;2023-07-31T11:13:07;98870.69;;;26.35;55.67
78800;BME280;68148;55.328;86.106;2023-07-31T11:15:32;98877.44;;;25.93;56.42
78800;BME280;68148;55.328;86.106;2023-07-31T11:18:00;98880.56;;;26.09;56.42
78800;BME280;68148;55.328;86.106;2023-07-31T11:20:27;98870.81;;;26.30;55.98
78800;BME280;68148;55.328;86.106;2023-07-31T11:22:52;98863.72;;;26.43;56.25
78800;BME280;68148;55.328;86.106;2023-07-31T11:25:18;98861.19;;;26.46;55.68
78800;BME280;68148;55.328;86.106;2023-07-31T11:27:44;98867.72;;;26.14;57.10
78800;BME280;68148;55.328;86.106;2023-07-31T11:30:10;98877.97;;;26.26;58.10
78800;BME280;68148;55.328;86.106;2023-07-31T11:32:37;98864.22;;;26.45;55.74
78800;BME280;68148;55.328;86.106;2023-07-31T11:35:03;98868.16;;;26.39;55.54
78800;BME280;68148;55.328;86.106;2023-07-31T11:37:42;98863.72;;;26.43;54.70
78800;BME280;68148;55.328;86.106;2023-07-31T11:40:08;98878.16;;;26.69;55.86
78800;BME280;68148;55.328;86.106;2023-07-31T11:42:36;98867.75;;;27.03;55.78
78800;BME280;68148;55.328;86.106;2023-07-31T11:45:03;98861.06;;;27.09;55.43
78800;BME280;68148;55.328;86.106;2023-07-31T11:47:30;98859.75;;;27.06;54.42
78800;BME280;68148;55.328;86.106;2023-07-31T11:49:57;98863.22;;;26.81;54.64
78800;BME280;68148;55.328;86.106;2023-07-31T11:52:27;98858.06;;;27.19;53.74
78800;BME280;68148;55.328;86.106;2023-07-31T11:54:55;98862.22;;;27.42;54.10
78800;BME280;68148;55.328;86.106;2023-07-31T11:57:21;98857.25;;;27.27;54.04
78800;BME280;68148;55.328;86.106;2023-07-31T11:59:48;98857.09;;;27.24;54.56
78800;BME280;68148;55.328;86.106;2023-07-31T12:02:14;98851.78;;;27.01;54.22
78800;BME280;68148;55.328;86.106;2023-07-31T12:04:40;98850.38;;;26.95;54.03
78800;BME280;68148;55.328;86.106;2023-07-31T12:07:06;98852.09;;;26.91;54.70
78800;BME280;68148;55.328;86.106;2023-07-31T12:09:34;98847.38;;;27.14;54.39
78800;BME280;68148;55.328;86.106;2023-07-31T12:12:08;98856.00;;;27.25;52.60
78800;BME280;68148;55.328;86.106;2023-07-31T12:14:34;98849.47;;;27.43;52.14
78800;BME280;68148;55.328;86.106;2023-07-31T12:17:04;98851.69;;;27.24;53.72
78800;BME280;68148;55.328;86.106;2023-07-31T12:19:30;98851.53;;;27.63;52.41
78800;BME280;68148;55.328;86.106;2023-07-31T12:21:58;98847.38;;;27.31;52.68
78800;BME280;68148;55.328;86.106;2023-07-31T12:24:26;98846.44;;;27.27;52.98
78800;BME280;68148;55.328;86.106;2023-07-31T12:26:52;98841.81;;;27.28;53.54
78800;BME280;68148;55.328;86.106;2023-07-31T12:29:18;98843.28;;;26.68;54.70
78800;BME280;68148;55.328;86.106;2023-07-31T12:31:43;98842.25;;;26.46;55.35
78800;BME280;68148;55.328;86.106;2023-07-31T12:34:16;98851.13;;;26.07;56.87
78800;BME280;68148;55.328;86.106;2023-07-31T12:36:42;98859.00;;;25.95;57.27
78800;BME280;68148;55.328;86.106;2023-07-31T12:39:08;98850.69;;;25.83;57.53
78800;BME280;68148;55.328;86.106;2023-07-31T12:41:35;98857.16;;;25.59;58.46
78800;BME280;68148;55.328;86.106;2023-07-31T12:44:02;98851.50;;;25.47;58.68
78800;BME280;68148;55.328;86.106;2023-07-31T12:46:28;98849.66;;;25.34;59.23
78800;BME280;68148;55.328;86.106;2023-07-31T12:48:54;98857.06;;;25.28;59.80
78800;BME280;68148;55.328;86.106;2023-07-31T12:51:20;98859.16;;;25.31;59.82